sensor_id;sensor_type;location;lat;lon;timestamp;P1;durP1;ratioP1;P2;durP2;ratioP2
16354;SDS011;8287;51.644;8.494;2022-11-15T00:00:13;601.50;;;569.13;;
16354;SDS011;8287;51.644;8.494;2022-11-15T00:02:39;830.05;;;778.60;;
16354;SDS011;8287;51.644;8.494;2022-11-15T00:05:06;834.00;;;781.90;;
16354;SDS011;8287;51.644;8.494;2022-11-15T00:07:33;782.60;;;734.83;;
16354;SDS011;8287;51.644;8.494;2022-11-15T00:10:01;772.53;;;725.97;;
16354;SDS011;8287;51.644;8.494;2022-11-15T00:12:27;753.25;;;707.95;;
16354;SDS011;8287;51.644;8.494;2022-11-15T00:14:54;760.55;;;714.42;;
16354;SDS011;8287;51.644;8.494;2022-11-15T00:17:21;723.17;;;679.97;;
16354;SDS011;8287;51.644;8.494;2022-11-15T00:19:47;732.75;;;689.10;;
16354;SDS011;8287;51.644;8.494;2022-11-15T00:22:14;660.90;;;623.85;;
16354;SDS011;8287;51.644;8.494;2022-11-15T00:24:41;687.67;;;648.20;;
16354;SDS011;8287;51.644;8.494;2022-11-15T00:27:09;636.88;;;601.72;;
16354;SDS011;8287;51.644;8.494;2022-11-15T00:29:35;660.85;;;623.83;;
16354;SDS011;8287;51.644;8.494;2022-11-15T00:32:03;617.50;;;583.75;;
16354;SDS011;8287;51.644;8.494;2022-11-15T00:34:30;563.67;;;534.72;;
16354;SDS011;8287;51.644;8.494;2022-11-15T00:36:57;547.10;;;519.42;;
16354;SDS011;8287;51.644;8.494;2022-11-15T00:39:23;460.88;;;439.25;;
16354;SDS011;8287;51.644;8.494;2022-11-15T00:41:50;553.03;;;525.35;;
16354;SDS011;8287;51.644;8.494;2022-11-15T00:44:18;475.63;;;453.13;;
16354;SDS011;8287;51.644;8.494;2022-11-15T00:46:45;502.42;;;477.95;;
16354;SDS011;8287;51.644;8.494;2022-11-15T00:49:11;437.77;;;417.90;;
16354;SDS011;8287;51.644;8.494;2022-11-15T00:51:38;449.25;;;428.30;;
16354;SDS011;8287;51.644;8.494;2022-11-15T00:54:04;570.60;;;540.83;;
16354;SDS011;8287;51.644;8.494;2022-11-15T00:56:31;487.67;;;464.63;;
16354;SDS011;8287;51.644;8.494;2022-11-15T00:58:57;489.65;;;466.40;;
16354;SDS011;8287;51.644;8.494;2022-11-15T01:01:25;515.60;;;490.92;;
16354;SDS011;8287;51.644;8.494;2022-11-15T01:03:52;483.73;;;460.98;;
16354;SDS011;8287;51.644;8.494;2022-11-15T01:06:19;514.35;;;489.27;;
16354;SDS011;8287;51.644;8.494;2022-11-15T01:08:45;525.08;;;499.48;;
16354;SDS011;8287;51.644;8.494;2022-11-15T01:11:12;441.08;;;420.55;;
16354;SDS011;8287;51.644;8.494;2022-11-15T01:13:39;539.72;;;512.55;;
16354;SDS011;8287;51.644;8.494;2022-11-15T01:16:06;427.15;;;407.65;;
16354;SDS011;8287;51.644;8.494;2022-11-15T01:18:36;550.40;;;522.38;;
16354;SDS011;8287;51.644;8.494;2022-11-15T01:21:06;521.08;;;495.92;;
16354;SDS011;8287;51.644;8.494;2022-11-15T01:23:34;458.33;;;436.83;;
16354;SDS011;8287;51.644;8.494;2022-11-15T01:26:00;486.25;;;463.33;;
16354;SDS011;8287;51.644;8.494;2022-11-15T01:28:29;527.95;;;501.38;;
16354;SDS011;8287;51.644;8.494;2022-11-15T01:30:57;411.52;;;392.60;;
16354;SDS011;8287;51.644;8.494;2022-11-15T01:33:24;447.88;;;427.50;;
16354;SDS011;8287;51.644;8.494;2022-11-15T01:35:52;737.08;;;693.10;;
16354;SDS011;8287;51.644;8.494;2022-11-15T01:38:19;529.15;;;501.90;;
16354;SDS011;8287;51.644;8.494;2022-11-15T01:40:45;516.58;;;489.02;;
16354;SDS011;8287;51.644;8.494;2022-11-15T01:43:19;797.00;;;748.47;;
16354;SDS011;8287;51.644;8.494;2022-11-15T01:45:46;515.83;;;488.60;;
16354;SDS011;8287;51.644;8.494;2022-11-15T01:48:18;588.65;;;556.60;;
16354;SDS011;8287;51.644;8.494;2022-11-15T01:50:45;373.85;;;356.98;;
16354;SDS011;8287;51.644;8.494;2022-11-15T01:53:13;515.58;;;488.13;;
16354;SDS011;8287;51.644;8.494;2022-11-15T01:55:40;445.77;;;424.40;;
16354;SDS011;8287;51.644;8.494;2022-11-15T01:58:07;271.48;;;258.50;;
16354;SDS011;8287;51.644;8.494;2022-11-15T02:00:34;317.77;;;303.88;;
16354;SDS011;8287;51.644;8.494;2022-11-15T02:03:01;301.45;;;287.88;;
16354;SDS011;8287;51.644;8.494;2022-11-15T02:05:28;260.20;;;248.70;;
16354;SDS011;8287;51.644;8.494;2022-11-15T02:07:56;316.60;;;301.77;;
16354;SDS011;8287;51.644;8.494;2022-11-15T02:10:25;367.92;;;350.85;;
16354;SDS011;8287;51.644;8.494;2022-11-15T02:12:52;360.92;;;344.15;;
16354;SDS011;8287;51.644;8.494;2022-11-15T02:15:19;236.18;;;225.00;;
16354;SDS011;8287;51.644;8.494;2022-11-15T02:17:50;241.55;;;230.23;;
16354;SDS011;8287;51.644;8.494;2022-11-15T02:26:45;268.58;;;256.13;;
16354;SDS011;8287;51.644;8.494;2022-11-15T02:29:36;289.00;;;276.00;;
16354;SDS011;8287;51.644;8.494;2022-11-15T02:32:21;499.42;;;474.40;;
16354;SDS011;8287;51.644;8.494;2022-11-15T02:35:00;317.05;;;302.83;;
16354;SDS011;8287;51.644;8.494;2022-11-15T02:37:33;452.88;;;431.05;;
16354;SDS011;8287;51.644;8.494;2022-11-15T02:40:06;439.27;;;418.38;;
16354;SDS011;8287;51.644;8.494;2022-11-15T02:42:40;360.45;;;344.10;;
16354;SDS011;8287;51.644;8.494;2022-11-15T02:45:29;430.33;;;410.50;;
16354;SDS011;8287;51.644;8.494;2022-11-15T02:48:00;401.25;;;382.55;;
16354;SDS011;8287;51.644;8.494;2022-11-15T02:50:29;410.35;;;391.38;;
16354;SDS011;8287;51.644;8.494;2022-11-15T02:52:58;257.90;;;246.27;;
16354;SDS011;8287;51.644;8.494;2022-11-15T02:55:26;296.27;;;283.13;;
16354;SDS011;8287;51.644;8.494;2022-11-15T02:58:04;459.60;;;438.17;;
16354;SDS011;8287;51.644;8.494;2022-11-15T03:00:41;480.13;;;457.67;;
16354;SDS011;8287;51.644;8.494;2022-11-15T03:03:24;431.33;;;411.20;;
16354;SDS011;8287;51.644;8.494;2022-11-15T03:06:04;412.60;;;393.60;;
16354;SDS011;8287;51.644;8.494;2022-11-15T03:08:44;546.67;;;519.58;;
16354;SDS011;8287;51.644;8.494;2022-11-15T03:11:19;418.15;;;399.23;;
16354;SDS011;8287;51.644;8.494;2022-11-15T03:13:51;322.63;;;308.65;;
16354;SDS011;8287;51.644;8.494;2022-11-15T03:16:22;314.65;;;301.20;;
16354;SDS011;8287;51.644;8.494;2022-11-15T03:18:56;723.00;;;679.97;;
16354;SDS011;8287;51.644;8.494;2022-11-15T03:21:26;825.10;;;773.95;;
16354;SDS011;8287;51.644;8.494;2022-11-15T03:23:55;703.25;;;662.22;;
16354;SDS011;8287;51.644;8.494;2022-11-15T03:26:27;685.58;;;645.92;;
16354;SDS011;8287;51.644;8.494;2022-11-15T03:28:56;815.92;;;764.90;;
16354;SDS011;8287;51.644;8.494;2022-11-15T03:31:28;839.80;;;787.00;;
16354;SDS011;8287;51.644;8.494;2022-11-15T03:34:18;771.47;;;724.03;;
16354;SDS011;8287;51.644;8.494;2022-11-15T03:36:48;833.42;;;780.88;;
16354;SDS011;8287;51.644;8.494;2022-11-15T03:39:17;691.58;;;651.45;;
16354;SDS011;8287;51.644;8.494;2022-11-15T03:41:46;682.22;;;642.50;;
16354;SDS011;8287;51.644;8.494;2022-11-15T03:44:16;751.28;;;705.83;;
16354;SDS011;8287;51.644;8.494;2022-11-15T03:46:55;785.83;;;737.33;;
16354;SDS011;8287;51.644;8.494;2022-11-15T03:49:31;746.10;;;701.30;;
16354;SDS011;8287;51.644;8.494;2022-11-15T03:52:00;817.30;;;766.78;;
16354;SDS011;8287;51.644;8.494;2022-11-15T03:54:27;791.92;;;743.33;;
16354;SDS011;8287;51.644;8.494;2022-11-15T03:56:54;806.70;;;756.80;;
16354;SDS011;8287;51.644;8.494;2022-11-15T03:59:21;792.47;;;743.80;;
16354;SDS011;8287;51.644;8.494;2022-11-15T04:01:48;799.75;;;750.40;;
16354;SDS011;8287;51.644;8.494;2022-11-15T04:04:14;737.65;;;693.78;;
16354;SDS011;8287;51.644;8.494;2022-11-15T04:06:42;853.15;;;799.42;;
16354;SDS011;8287;51.644;8.494;2022-11-15T04:09:09;804.40;;;754.75;;
16354;SDS011;8287;51.644;8.494;2022-11-15T04:11:35;739.70;;;695.03;;
16354;SDS011;8287;51.644;8.494;2022-11-15T04:14:02;852.85;;;799.13;;
16354;SDS011;8287;51.644;8.494;2022-11-15T04:16:28;775.33;;;728.10;;
16354;SDS011;8287;51.644;8.494;2022-11-15T04:18:55;826.63;;;774.95;;
16354;SDS011;8287;51.644;8.494;2022-11-15T04:21:35;804.15;;;754.47;;
16354;SDS011;8287;51.644;8.494;2022-11-15T04:24:21;793.67;;;745.05;;
16354;SDS011;8287;51.644;8.494;2022-11-15T04:26:47;846.75;;;793.58;;
16354;SDS011;8287;51.644;8.494;2022-11-15T04:29:14;792.55;;;743.72;;
16354;SDS011;8287;51.644;8.494;2022-11-15T04:31:58;789.25;;;740.78;;
16354;SDS011;8287;51.644;8.494;2022-11-15T04:34:25;767.05;;;720.50;;
16354;SDS011;8287;51.644;8.494;2022-11-15T04:36:51;739.47;;;695.38;;
16354;SDS011;8287;51.644;8.494;2022-11-15T04:39:37;832.20;;;780.35;;
16354;SDS011;8287;51.644;8.494;2022-11-15T04:42:04;668.05;;;630.10;;
16354;SDS011;8287;51.644;8.494;2022-11-15T04:44:31;933.88;;;872.80;;
16354;SDS011;8287;51.644;8.494;2022-11-15T04:46:57;877.63;;;821.65;;
16354;SDS011;8287;51.644;8.494;2022-11-15T04:49:24;722.55;;;679.80;;
16354;SDS011;8287;51.644;8.494;2022-11-15T04:51:50;803.83;;;753.78;;
16354;SDS011;8287;51.644;8.494;2022-11-15T04:54:17;687.28;;;647.03;;
16354;SDS011;8287;51.644;8.494;2022-11-15T04:56:45;873.17;;;817.72;;
16354;SDS011;8287;51.644;8.494;2022-11-15T04:59:11;972.90;;;907.47;;
16354;SDS011;8287;51.644;8.494;2022-11-15T05:01:38;842.72;;;789.95;;
16354;SDS011;8287;51.644;8.494;2022-11-15T05:04:05;790.08;;;741.75;;
16354;SDS011;8287;51.644;8.494;2022-11-15T05:06:46;747.88;;;702.78;;
16354;SDS011;8287;51.644;8.494;2022-11-15T05:09:16;963.63;;;899.50;;
16354;SDS011;8287;51.644;8.494;2022-11-15T05:11:44;691.65;;;650.95;;
16354;SDS011;8287;51.644;8.494;2022-11-15T05:14:11;962.75;;;898.40;;
16354;SDS011;8287;51.644;8.494;2022-11-15T05:16:38;670.33;;;631.60;;
16354;SDS011;8287;51.644;8.494;2022-11-15T05:19:06;686.92;;;647.05;;
16354;SDS011;8287;51.644;8.494;2022-11-15T05:21:33;761.03;;;714.55;;
16354;SDS011;8287;51.644;8.494;2022-11-15T05:24:00;868.97;;;813.88;;
16354;SDS011;8287;51.644;8.494;2022-11-15T05:26:27;630.83;;;595.50;;
16354;SDS011;8287;51.644;8.494;2022-11-15T05:28:55;896.63;;;838.40;;
16354;SDS011;8287;51.644;8.494;2022-11-15T05:31:24;798.50;;;749.65;;
16354;SDS011;8287;51.644;8.494;2022-11-15T05:33:51;613.70;;;577.88;;
16354;SDS011;8287;51.644;8.494;2022-11-15T05:36:21;821.70;;;770.55;;
16354;SDS011;8287;51.644;8.494;2022-11-15T05:38:53;816.83;;;765.90;;
16354;SDS011;8287;51.644;8.494;2022-11-15T05:41:20;330.35;;;314.25;;
16354;SDS011;8287;51.644;8.494;2022-11-15T05:43:51;338.85;;;321.73;;
16354;SDS011;8287;51.644;8.494;2022-11-15T05:46:20;559.67;;;528.25;;
16354;SDS011;8287;51.644;8.494;2022-11-15T05:48:47;876.15;;;820.55;;
16354;SDS011;8287;51.644;8.494;2022-11-15T05:51:16;570.95;;;540.13;;
16354;SDS011;8287;51.644;8.494;2022-11-15T05:53:45;498.45;;;471.50;;
16354;SDS011;8287;51.644;8.494;2022-11-15T05:56:12;599.55;;;563.80;;
16354;SDS011;8287;51.644;8.494;2022-11-15T05:58:40;467.35;;;440.63;;
16354;SDS011;8287;51.644;8.494;2022-11-15T06:01:07;537.00;;;507.48;;
16354;SDS011;8287;51.644;8.494;2022-11-15T06:03:35;429.95;;;407.48;;
16354;SDS011;8287;51.644;8.494;2022-11-15T06:06:02;620.80;;;586.33;;
16354;SDS011;8287;51.644;8.494;2022-11-15T06:08:29;715.47;;;673.20;;
16354;SDS011;8287;51.644;8.494;2022-11-15T06:10:55;782.88;;;735.22;;
16354;SDS011;8287;51.644;8.494;2022-11-15T06:13:22;727.92;;;684.75;;
16354;SDS011;8287;51.644;8.494;2022-11-15T06:15:48;763.67;;;717.45;;
16354;SDS011;8287;51.644;8.494;2022-11-15T06:18:15;858.20;;;804.20;;
16354;SDS011;8287;51.644;8.494;2022-11-15T06:20:43;571.85;;;541.15;;
16354;SDS011;8287;51.644;8.494;2022-11-15T06:23:10;513.00;;;485.38;;
16354;SDS011;8287;51.644;8.494;2022-11-15T06:25:37;478.38;;;454.33;;
16354;SDS011;8287;51.644;8.494;2022-11-15T06:28:03;345.83;;;329.25;;
16354;SDS011;8287;51.644;8.494;2022-11-15T06:30:30;352.83;;;334.30;;
16354;SDS011;8287;51.644;8.494;2022-11-15T06:33:00;709.63;;;667.58;;
16354;SDS011;8287;51.644;8.494;2022-11-15T06:35:27;377.48;;;358.90;;
16354;SDS011;8287;51.644;8.494;2022-11-15T06:37:56;668.70;;;630.17;;
16354;SDS011;8287;51.644;8.494;2022-11-15T06:40:27;786.75;;;738.65;;
16354;SDS011;8287;51.644;8.494;2022-11-15T06:42:56;626.95;;;591.40;;
16354;SDS011;8287;51.644;8.494;2022-11-15T06:45:24;765.83;;;719.58;;
16354;SDS011;8287;51.644;8.494;2022-11-15T06:47:50;525.15;;;498.40;;
16354;SDS011;8287;51.644;8.494;2022-11-15T06:50:17;725.28;;;682.33;;
16354;SDS011;8287;51.644;8.494;2022-11-15T06:52:43;634.17;;;597.40;;
16354;SDS011;8287;51.644;8.494;2022-11-15T06:55:12;789.03;;;740.78;;
16354;SDS011;8287;51.644;8.494;2022-11-15T06:57:45;600.50;;;567.38;;
16354;SDS011;8287;51.644;8.494;2022-11-15T07:00:13;621.47;;;586.92;;
16354;SDS011;8287;51.644;8.494;2022-11-15T07:02:40;728.08;;;684.80;;
16354;SDS011;8287;51.644;8.494;2022-11-15T07:05:07;502.08;;;476.83;;
16354;SDS011;8287;51.644;8.494;2022-11-15T07:07:34;706.30;;;663.90;;
16354;SDS011;8287;51.644;8.494;2022-11-15T07:10:01;443.55;;;417.50;;
16354;SDS011;8287;51.644;8.494;2022-11-15T07:12:29;590.92;;;555.80;;
16354;SDS011;8287;51.644;8.494;2022-11-15T07:14:55;525.25;;;497.83;;
16354;SDS011;8287;51.644;8.494;2022-11-15T07:17:22;539.38;;;511.35;;
16354;SDS011;8287;51.644;8.494;2022-11-15T07:19:48;806.30;;;756.75;;
16354;SDS011;8287;51.644;8.494;2022-11-15T07:22:15;639.67;;;603.72;;
16354;SDS011;8287;51.644;8.494;2022-11-15T07:24:41;478.70;;;455.02;;
16354;SDS011;8287;51.644;8.494;2022-11-15T07:27:08;638.50;;;602.53;;
16354;SDS011;8287;51.644;8.494;2022-11-15T07:29:36;565.10;;;535.63;;
16354;SDS011;8287;51.644;8.494;2022-11-15T07:32:03;565.58;;;534.00;;
16354;SDS011;8287;51.644;8.494;2022-11-15T07:34:29;715.42;;;673.42;;
16354;SDS011;8287;51.644;8.494;2022-11-15T07:36:56;308.38;;;293.30;;
16354;SDS011;8287;51.644;8.494;2022-11-15T07:39:23;258.85;;;245.63;;
16354;SDS011;8287;51.644;8.494;2022-11-15T07:41:49;777.20;;;729.63;;
16354;SDS011;8287;51.644;8.494;2022-11-15T07:44:37;583.80;;;553.42;;
16354;SDS011;8287;51.644;8.494;2022-11-15T07:47:04;567.00;;;537.30;;
16354;SDS011;8287;51.644;8.494;2022-11-15T07:49:30;820.40;;;769.65;;
16354;SDS011;8287;51.644;8.494;2022-11-15T07:51:57;790.20;;;741.75;;
16354;SDS011;8287;51.644;8.494;2022-11-15T07:54:24;704.42;;;663.17;;
16354;SDS011;8287;51.644;8.494;2022-11-15T07:56:50;509.00;;;483.70;;
16354;SDS011;8287;51.644;8.494;2022-11-15T07:59:17;336.73;;;320.98;;
16354;SDS011;8287;51.644;8.494;2022-11-15T08:01:45;645.83;;;609.00;;
16354;SDS011;8287;51.644;8.494;2022-11-15T08:04:12;244.18;;;232.85;;
16354;SDS011;8287;51.644;8.494;2022-11-15T08:06:39;447.42;;;426.58;;
16354;SDS011;8287;51.644;8.494;2022-11-15T08:09:05;484.67;;;460.52;;
16354;SDS011;8287;51.644;8.494;2022-11-15T08:11:32;301.70;;;288.45;;
16354;SDS011;8287;51.644;8.494;2022-11-15T08:13:59;589.88;;;557.92;;
16354;SDS011;8287;51.644;8.494;2022-11-15T08:16:25;418.05;;;398.90;;
16354;SDS011;8287;51.644;8.494;2022-11-15T08:18:53;337.27;;;321.38;;
16354;SDS011;8287;51.644;8.494;2022-11-15T08:21:20;512.03;;;486.10;;
16354;SDS011;8287;51.644;8.494;2022-11-15T08:23:47;257.85;;;245.80;;
16354;SDS011;8287;51.644;8.494;2022-11-15T08:26:14;721.50;;;678.88;;
16354;SDS011;8287;51.644;8.494;2022-11-15T08:28:41;562.50;;;532.78;;
16354;SDS011;8287;51.644;8.494;2022-11-15T08:31:11;328.75;;;312.65;;
16354;SDS011;8287;51.644;8.494;2022-11-15T08:33:40;146.20;;;139.07;;
16354;SDS011;8287;51.644;8.494;2022-11-15T08:36:11;196.85;;;187.25;;
16354;SDS011;8287;51.644;8.494;2022-11-15T08:38:39;573.38;;;542.38;;
16354;SDS011;8287;51.644;8.494;2022-11-15T08:41:06;134.70;;;127.57;;
16354;SDS011;8287;51.644;8.494;2022-11-15T08:43:33;480.23;;;452.60;;
16354;SDS011;8287;51.644;8.494;2022-11-15T08:45:59;688.83;;;648.83;;
16354;SDS011;8287;51.644;8.494;2022-11-15T08:48:26;560.70;;;531.38;;
16354;SDS011;8287;51.644;8.494;2022-11-15T08:50:53;629.58;;;594.10;;
16354;SDS011;8287;51.644;8.494;2022-11-15T08:53:21;454.05;;;432.35;;
16354;SDS011;8287;51.644;8.494;2022-11-15T08:55:48;129.13;;;122.80;;
16354;SDS011;8287;51.644;8.494;2022-11-15T08:58:15;707.50;;;666.53;;
16354;SDS011;8287;51.644;8.494;2022-11-15T09:00:41;460.17;;;437.60;;
16354;SDS011;8287;51.644;8.494;2022-11-15T09:03:08;589.00;;;558.30;;
16354;SDS011;8287;51.644;8.494;2022-11-15T09:05:35;620.85;;;587.92;;
16354;SDS011;8287;51.644;8.494;2022-11-15T09:08:02;483.23;;;456.65;;
16354;SDS011;8287;51.644;8.494;2022-11-15T09:10:31;552.92;;;524.55;;
16354;SDS011;8287;51.644;8.494;2022-11-15T09:12:57;534.05;;;505.50;;
16354;SDS011;8287;51.644;8.494;2022-11-15T09:15:24;536.40;;;509.48;;
16354;SDS011;8287;51.644;8.494;2022-11-15T09:17:50;570.42;;;541.60;;
16354;SDS011;8287;51.644;8.494;2022-11-15T09:20:17;471.83;;;449.85;;
16354;SDS011;8287;51.644;8.494;2022-11-15T09:22:44;407.35;;;388.40;;
16354;SDS011;8287;51.644;8.494;2022-11-15T09:25:11;501.60;;;477.73;;
16354;SDS011;8287;51.644;8.494;2022-11-15T09:27:39;237.13;;;226.48;;
16354;SDS011;8287;51.644;8.494;2022-11-15T09:30:06;528.72;;;502.63;;
16354;SDS011;8287;51.644;8.494;2022-11-15T09:32:33;434.90;;;413.80;;
16354;SDS011;8287;51.644;8.494;2022-11-15T09:35:00;293.95;;;281.17;;
16354;SDS011;8287;51.644;8.494;2022-11-15T09:37:28;538.65;;;512.08;;
16354;SDS011;8287;51.644;8.494;2022-11-15T09:39:54;248.38;;;237.48;;
16354;SDS011;8287;51.644;8.494;2022-11-15T09:42:25;139.02;;;132.40;;
16354;SDS011;8287;51.644;8.494;2022-11-15T09:45:09;497.40;;;474.05;;
16354;SDS011;8287;51.644;8.494;2022-11-15T09:47:48;527.42;;;502.08;;
16354;SDS011;8287;51.644;8.494;2022-11-15T09:50:30;369.80;;;351.60;;
16354;SDS011;8287;51.644;8.494;2022-11-15T09:53:02;265.73;;;254.02;;
16354;SDS011;8287;51.644;8.494;2022-11-15T09:55:32;470.92;;;449.27;;
16354;SDS011;8287;51.644;8.494;2022-11-15T09:58:15;442.95;;;423.25;;
16354;SDS011;8287;51.644;8.494;2022-11-15T10:00:52;381.33;;;364.80;;
16354;SDS011;8287;51.644;8.494;2022-11-15T10:03:21;202.63;;;193.02;;
16354;SDS011;8287;51.644;8.494;2022-11-15T10:05:51;456.85;;;436.17;;
16354;SDS011;8287;51.644;8.494;2022-11-15T10:08:43;353.65;;;338.23;;
16354;SDS011;8287;51.644;8.494;2022-11-15T10:11:18;303.98;;;290.27;;
16354;SDS011;8287;51.644;8.494;2022-11-15T10:13:47;358.80;;;343.38;;
16354;SDS011;8287;51.644;8.494;2022-11-15T10:16:24;149.20;;;142.77;;
16354;SDS011;8287;51.644;8.494;2022-11-15T10:19:21;289.30;;;276.42;;
16354;SDS011;8287;51.644;8.494;2022-11-15T10:22:01;398.40;;;381.40;;
16354;SDS011;8287;51.644;8.494;2022-11-15T10:24:40;344.67;;;329.88;;
16354;SDS011;8287;51.644;8.494;2022-11-15T10:27:09;380.13;;;363.73;;
16354;SDS011;8287;51.644;8.494;2022-11-15T10:29:42;254.80;;;241.50;;
16354;SDS011;8287;51.644;8.494;2022-11-15T10:32:11;93.55;;;89.20;;
16354;SDS011;8287;51.644;8.494;2022-11-15T10:34:40;310.83;;;297.35;;
16354;SDS011;8287;51.644;8.494;2022-11-15T10:37:07;277.48;;;265.20;;
16354;SDS011;8287;51.644;8.494;2022-11-15T10:39:34;320.20;;;306.70;;
16354;SDS011;8287;51.644;8.494;2022-11-15T10:42:15;286.73;;;274.23;;
16354;SDS011;8287;51.644;8.494;2022-11-15T10:44:43;226.00;;;215.80;;
16354;SDS011;8287;51.644;8.494;2022-11-15T10:50:00;177.18;;;169.50;;
16354;SDS011;8287;51.644;8.494;2022-11-15T10:52:29;161.38;;;154.27;;
16354;SDS011;8287;51.644;8.494;2022-11-15T10:54:59;102.55;;;98.22;;
16354;SDS011;8287;51.644;8.494;2022-11-15T10:57:30;338.25;;;323.55;;
16354;SDS011;8287;51.644;8.494;2022-11-15T10:59:59;253.40;;;242.52;;
16354;SDS011;8287;51.644;8.494;2022-11-15T11:02:30;273.38;;;262.05;;
16354;SDS011;8287;51.644;8.494;2022-11-15T11:05:00;232.65;;;222.93;;
16354;SDS011;8287;51.644;8.494;2022-11-15T11:07:29;87.55;;;83.82;;
16354;SDS011;8287;51.644;8.494;2022-11-15T11:09:58;220.43;;;211.23;;
16354;SDS011;8287;51.644;8.494;2022-11-15T11:12:27;205.00;;;196.55;;
16354;SDS011;8287;51.644;8.494;2022-11-15T11:14:57;231.82;;;222.15;;
16354;SDS011;8287;51.644;8.494;2022-11-15T11:17:27;307.95;;;295.10;;
16354;SDS011;8287;51.644;8.494;2022-11-15T11:20:04;271.10;;;259.90;;
16354;SDS011;8287;51.644;8.494;2022-11-15T11:22:38;267.50;;;256.58;;
16354;SDS011;8287;51.644;8.494;2022-11-15T11:25:19;327.60;;;314.00;;
16354;SDS011;8287;51.644;8.494;2022-11-15T11:27:58;272.10;;;260.73;;
16354;SDS011;8287;51.644;8.494;2022-11-15T11:30:47;158.38;;;151.90;;
16354;SDS011;8287;51.644;8.494;2022-11-15T11:33:24;207.32;;;198.70;;
16354;SDS011;8287;51.644;8.494;2022-11-15T11:35:59;252.57;;;242.15;;
16354;SDS011;8287;51.644;8.494;2022-11-15T11:38:42;247.80;;;237.43;;
16354;SDS011;8287;51.644;8.494;2022-11-15T11:41:19;239.55;;;229.60;;
16354;SDS011;8287;51.644;8.494;2022-11-15T11:43:59;202.95;;;194.57;;
16354;SDS011;8287;51.644;8.494;2022-11-15T11:46:40;248.35;;;238.15;;
16354;SDS011;8287;51.644;8.494;2022-11-15T11:49:16;202.88;;;194.73;;
16354;SDS011;8287;51.644;8.494;2022-11-15T11:51:47;156.13;;;149.63;;
16354;SDS011;8287;51.644;8.494;2022-11-15T11:54:20;155.00;;;148.70;;
16354;SDS011;8287;51.644;8.494;2022-11-15T11:56:52;141.30;;;135.50;;
16354;SDS011;8287;51.644;8.494;2022-11-15T11:59:25;170.20;;;163.27;;
16354;SDS011;8287;51.644;8.494;2022-11-15T12:02:01;161.88;;;155.27;;
16354;SDS011;8287;51.644;8.494;2022-11-15T12:04:40;159.02;;;152.38;;
16354;SDS011;8287;51.644;8.494;2022-11-15T12:07:11;153.50;;;147.10;;
16354;SDS011;8287;51.644;8.494;2022-11-15T12:09:43;127.35;;;121.50;;
16354;SDS011;8287;51.644;8.494;2022-11-15T12:12:17;134.48;;;128.98;;
16354;SDS011;8287;51.644;8.494;2022-11-15T12:14:52;163.70;;;156.77;;
16354;SDS011;8287;51.644;8.494;2022-11-15T12:17:23;98.35;;;94.07;;
16354;SDS011;8287;51.644;8.494;2022-11-15T12:19:53;113.40;;;108.70;;
16354;SDS011;8287;51.644;8.494;2022-11-15T12:22:24;164.77;;;157.65;;
16354;SDS011;8287;51.644;8.494;2022-11-15T12:25:02;143.75;;;137.70;;
16354;SDS011;8287;51.644;8.494;2022-11-15T12:27:32;91.15;;;87.38;;
16354;SDS011;8287;51.644;8.494;2022-11-15T12:30:03;72.55;;;69.38;;
16354;SDS011;8287;51.644;8.494;2022-11-15T12:32:37;105.38;;;100.95;;
16354;SDS011;8287;51.644;8.494;2022-11-15T12:35:20;109.05;;;104.50;;
16354;SDS011;8287;51.644;8.494;2022-11-15T12:37:50;74.03;;;70.90;;
16354;SDS011;8287;51.644;8.494;2022-11-15T12:40:24;86.68;;;83.05;;
16354;SDS011;8287;51.644;8.494;2022-11-15T12:43:03;59.05;;;56.60;;
16354;SDS011;8287;51.644;8.494;2022-11-15T12:45:45;112.97;;;108.03;;
16354;SDS011;8287;51.644;8.494;2022-11-15T12:52:02;69.20;;;66.28;;
16354;SDS011;8287;51.644;8.494;2022-11-15T12:54:49;142.20;;;136.32;;
16354;SDS011;8287;51.644;8.494;2022-11-15T12:57:37;70.05;;;66.97;;
16354;SDS011;8287;51.644;8.494;2022-11-15T13:03:18;145.00;;;139.05;;
16354;SDS011;8287;51.644;8.494;2022-11-15T13:05:55;106.53;;;101.93;;
16354;SDS011;8287;51.644;8.494;2022-11-15T13:08:46;103.78;;;98.95;;
16354;SDS011;8287;51.644;8.494;2022-11-15T13:17:22;102.00;;;97.78;;
16354;SDS011;8287;51.644;8.494;2022-11-15T13:19:57;96.70;;;92.68;;
16354;SDS011;8287;51.644;8.494;2022-11-15T13:22:27;144.93;;;138.77;;
16354;SDS011;8287;51.644;8.494;2022-11-15T13:25:18;73.18;;;70.18;;
16354;SDS011;8287;51.644;8.494;2022-11-15T13:27:48;78.22;;;74.97;;
16354;SDS011;8287;51.644;8.494;2022-11-15T13:30:19;62.67;;;59.83;;
16354;SDS011;8287;51.644;8.494;2022-11-15T13:32:48;93.95;;;89.93;;
16354;SDS011;8287;51.644;8.494;2022-11-15T13:35:20;99.35;;;95.22;;
16354;SDS011;8287;51.644;8.494;2022-11-15T13:37:49;56.60;;;53.97;;
16354;SDS011;8287;51.644;8.494;2022-11-15T13:40:20;56.30;;;53.65;;
16354;SDS011;8287;51.644;8.494;2022-11-15T13:42:49;85.88;;;82.22;;
16354;SDS011;8287;51.644;8.494;2022-11-15T13:45:17;85.50;;;81.82;;
16354;SDS011;8287;51.644;8.494;2022-11-15T13:47:50;70.63;;;67.28;;
16354;SDS011;8287;51.644;8.494;2022-11-15T13:50:18;81.28;;;77.82;;
16354;SDS011;8287;51.644;8.494;2022-11-15T13:52:49;104.28;;;99.88;;
16354;SDS011;8287;51.644;8.494;2022-11-15T13:55:17;79.82;;;76.38;;
16354;SDS011;8287;51.644;8.494;2022-11-15T13:57:47;138.23;;;132.60;;
16354;SDS011;8287;51.644;8.494;2022-11-15T14:00:27;79.10;;;75.75;;
16354;SDS011;8287;51.644;8.494;2022-11-15T14:03:04;72.13;;;69.05;;
16354;SDS011;8287;51.644;8.494;2022-11-15T14:05:33;59.40;;;56.92;;
16354;SDS011;8287;51.644;8.494;2022-11-15T14:08:01;96.43;;;92.22;;
16354;SDS011;8287;51.644;8.494;2022-11-15T14:10:30;58.55;;;56.00;;
16354;SDS011;8287;51.644;8.494;2022-11-15T14:13:00;49.20;;;47.13;;
16354;SDS011;8287;51.644;8.494;2022-11-15T14:15:29;101.35;;;97.15;;
16354;SDS011;8287;51.644;8.494;2022-11-15T14:17:58;97.63;;;93.55;;
16354;SDS011;8287;51.644;8.494;2022-11-15T14:20:27;47.70;;;45.33;;
16354;SDS011;8287;51.644;8.494;2022-11-15T14:22:56;103.45;;;98.63;;
16354;SDS011;8287;51.644;8.494;2022-11-15T14:25:24;123.35;;;118.30;;
16354;SDS011;8287;51.644;8.494;2022-11-15T14:28:10;116.97;;;112.05;;
16354;SDS011;8287;51.644;8.494;2022-11-15T14:30:40;57.92;;;55.38;;
16354;SDS011;8287;51.644;8.494;2022-11-15T14:33:17;71.90;;;68.43;;
16354;SDS011;8287;51.644;8.494;2022-11-15T14:35:46;43.58;;;41.72;;
16354;SDS011;8287;51.644;8.494;2022-11-15T14:38:13;70.30;;;66.75;;
16354;SDS011;8287;51.644;8.494;2022-11-15T14:40:40;88.03;;;84.32;;
16354;SDS011;8287;51.644;8.494;2022-11-15T14:43:08;44.35;;;42.45;;
16354;SDS011;8287;51.644;8.494;2022-11-15T14:45:37;55.42;;;52.83;;
16354;SDS011;8287;51.644;8.494;2022-11-15T14:48:04;47.72;;;45.55;;
16354;SDS011;8287;51.644;8.494;2022-11-15T14:50:32;104.47;;;99.97;;